Time,TemperatureF,DewpointF,PressureIn,WindDirection,WindDirectionDegrees,WindSpeedMPH,WindSpeedGustMPH,Humidity,HourlyPrecipIn,Conditions,Clouds,dailyrainin,SolarRadiationWatts/m^2,SoftwareType,DateUTC
2013-05-10 00:01:00,45.0,41.0,-100.00,North,2,9.0,14.0,85,0.00,,,0.00,2.000000,,2013-05-10 07:01:00,
2013-05-10 00:11:00,45.0,41.0,-100.00,North,2,9.0,14.0,85,0.00,,,0.00,2.000000,,2013-05-10 07:11:00,
2013-05-10 00:42:00,45.0,41.0,-100.00,North,2,8.0,14.0,85,0.00,,,0.00,2.000000,,2013-05-10 07:42:00,
2013-05-10 00:52:00,45.0,41.0,-100.00,North,2,8.0,14.0,85,0.00,,,0.00,2.000000,,2013-05-10 07:52:00,
2013-05-10 01:02:00,45.0,41.0,-100.00,North,2,8.0,14.0,85,0.00,,,0.00,2.000000,,2013-05-10 08:02:00,
2013-05-10 01:12:00,45.0,41.0,-100.00,North,2,8.0,14.0,85,0.00,,,0.00,2.000000,,2013-05-10 08:12:00,
2013-05-10 01:42:00,44.0,40.0,-100.00,North,2,8.0,11.0,87,0.00,,,0.00,2.000000,,2013-05-10 08:42:00,
2013-05-10 01:52:00,44.0,40.0,-100.00,North,2,8.0,11.0,87,0.00,,,0.00,2.000000,,2013-05-10 08:52:00,
2013-05-10 02:01:00,44.0,40.0,-100.00,North,2,8.0,11.0,87,0.00,,,0.00,2.000000,,2013-05-10 09:01:00,
2013-05-10 02:11:00,44.0,40.0,-100.00,North,2,8.0,11.0,87,0.00,,,0.00,2.000000,,2013-05-10 09:11:00,
2013-05-10 02:43:00,44.0,40.0,-100.00,North,2,10.0,15.0,86,0.00,,,0.00,3.000000,,2013-05-10 09:43:00,
2013-05-10 02:52:00,44.0,40.0,-100.00,North,2,10.0,15.0,86,0.00,,,0.00,3.000000,,2013-05-10 09:52:00,
2013-05-10 03:02:00,44.0,40.0,-100.00,North,2,10.0,15.0,86,0.00,,,0.00,3.000000,,2013-05-10 10:02:00,
2013-05-10 03:12:00,44.0,40.0,-100.00,North,2,10.0,15.0,86,0.00,,,0.00,3.000000,,2013-05-10 10:12:00,
2013-05-10 03:33:00,43.0,41.0,-100.00,North,2,12.0,18.0,93,0.00,,,0.00,2.000000,,2013-05-10 10:33:00,
2013-05-10 03:42:00,43.0,41.0,-100.00,North,2,12.0,18.0,93,0.00,,,0.00,2.000000,,2013-05-10 10:42:00,
2013-05-10 03:52:00,43.0,41.0,-100.00,North,2,12.0,18.0,93,0.00,,,0.00,2.000000,,2013-05-10 10:52:00,
2013-05-10 04:02:00,43.0,41.0,-100.00,North,2,12.0,18.0,93,0.00,,,0.00,2.000000,,2013-05-10 11:02:00,
2013-05-10 04:12:00,43.0,41.0,-100.00,North,2,12.0,18.0,93,0.00,,,0.00,2.000000,,2013-05-10 11:12:00,
2013-05-10 06:42:00,44.0,43.0,-100.00,North,2,14.0,17.0,97,-99.99,,,0.00,6.000000,,2013-05-10 13:42:00,
2013-05-10 06:52:00,44.0,43.0,-100.00,North,2,14.0,17.0,97,-99.99,,,0.00,6.000000,,2013-05-10 13:52:00,
2013-05-10 07:02:00,44.0,43.0,-100.00,North,2,14.0,17.0,97,-99.99,,,0.00,6.000000,,2013-05-10 14:02:00,
2013-05-10 07:11:00,44.0,43.0,-100.00,North,2,14.0,17.0,97,-99.99,,,0.00,6.000000,,2013-05-10 14:11:00,
2013-05-10 07:15:00,-999.0,-99.9,-100.00,North,2,12.0,16.0,89,0.00,,,0.00,127.000000,,2013-05-10 14:15:00,
2013-05-10 07:42:00,47.0,44.0,-100.00,North,2,12.0,16.0,89,0.00,,,0.00,127.000000,,2013-05-10 14:42:00,
2013-05-10 07:52:00,47.0,44.0,-100.00,North,2,12.0,16.0,89,0.00,,,0.00,127.000000,,2013-05-10 14:52:00,
2013-05-10 08:01:00,47.0,44.0,-100.00,North,2,12.0,16.0,89,0.00,,,0.00,127.000000,,2013-05-10 15:01:00,
2013-05-10 08:42:00,51.0,44.0,-100.00,North,1,12.0,18.0,77,0.00,,,0.00,368.000000,,2013-05-10 15:42:00,
2013-05-10 08:53:00,51.0,44.0,-100.00,North,1,12.0,18.0,77,0.00,,,0.00,368.000000,,2013-05-10 15:53:00,
2013-05-10 09:02:00,51.0,44.0,-100.00,North,1,12.0,18.0,77,0.00,,,0.00,368.000000,,2013-05-10 16:02:00,
2013-05-10 09:12:00,51.0,44.0,-100.00,North,1,12.0,18.0,77,0.00,,,0.00,368.000000,,2013-05-10 16:12:00,
2013-05-10 09:43:00,56.0,46.0,-100.00,North,1,9.0,17.0,70,0.00,,,0.00,604.000000,,2013-05-10 16:43:00,
2013-05-10 09:52:00,56.0,46.0,-100.00,North,1,9.0,17.0,70,0.00,,,0.00,604.000000,,2013-05-10 16:52:00,
2013-05-10 10:02:00,56.0,46.0,-100.00,North,1,9.0,17.0,70,0.00,,,0.00,604.000000,,2013-05-10 17:02:00,
2013-05-10 10:12:00,56.0,46.0,-100.00,North,1,9.0,17.0,70,0.00,,,0.00,604.000000,,2013-05-10 17:12:00,
2013-05-10 10:42:00,59.0,43.0,-100.00,North,1,11.0,19.0,55,0.00,,,0.00,818.000000,,2013-05-10 17:42:00,
2013-05-10 10:52:00,59.0,43.0,-100.00,North,1,11.0,19.0,55,0.00,,,0.00,818.000000,,2013-05-10 17:52:00,
2013-05-10 11:10:00,-999.0,-99.9,-100.00,North,1,11.0,19.0,55,0.00,,,0.00,818.000000,,2013-05-10 18:10:00,
2013-05-10 11:43:00,63.0,41.0,-100.00,North,1,11.0,21.0,44,0.00,,,0.00,977.000000,,2013-05-10 18:43:00,
2013-05-10 11:54:00,63.0,41.0,-100.00,North,1,11.0,21.0,44,0.00,,,0.00,977.000000,,2013-05-10 18:54:00,
2013-05-10 12:02:00,63.0,41.0,-100.00,North,1,11.0,21.0,44,0.00,,,0.00,977.000000,,2013-05-10 19:02:00,
2013-05-10 12:11:00,63.0,41.0,-100.00,North,1,11.0,21.0,44,0.00,,,0.00,977.000000,,2013-05-10 19:11:00,
2013-05-10 12:42:00,64.0,37.0,-100.00,North,0,13.0,24.0,36,0.00,,,0.00,1076.000000,,2013-05-10 19:42:00,
2013-05-10 12:52:00,64.0,37.0,-100.00,North,0,13.0,24.0,36,0.00,,,0.00,1076.000000,,2013-05-10 19:52:00,
2013-05-10 13:01:00,64.0,37.0,-100.00,North,0,13.0,24.0,36,0.00,,,0.00,1076.000000,,2013-05-10 20:01:00,
2013-05-10 13:11:00,64.0,37.0,-100.00,North,0,13.0,24.0,36,0.00,,,0.00,1076.000000,,2013-05-10 20:11:00,
2013-05-10 13:42:00,66.0,36.0,-100.00,North,0,12.0,25.0,33,0.00,,,0.00,1115.000000,,2013-05-10 20:42:00,
2013-05-10 13:52:00,66.0,36.0,-100.00,North,0,12.0,25.0,33,0.00,,,0.00,1115.000000,,2013-05-10 20:52:00,
2013-05-10 14:01:00,66.0,36.0,-100.00,North,0,12.0,25.0,33,0.00,,,0.00,1115.000000,,2013-05-10 21:01:00,
2013-05-10 14:11:00,66.0,36.0,-100.00,North,0,12.0,25.0,33,0.00,,,0.00,1115.000000,,2013-05-10 21:11:00,
2013-05-10 14:43:00,65.0,34.0,-100.00,North,0,12.0,22.0,32,0.00,,,0.00,1002.000000,,2013-05-10 21:43:00,
2013-05-10 14:52:00,65.0,34.0,-100.00,North,0,12.0,22.0,32,0.00,,,0.00,1002.000000,,2013-05-10 21:52:00,
2013-05-10 15:02:00,65.0,34.0,-100.00,North,0,12.0,22.0,32,0.00,,,0.00,1002.000000,,2013-05-10 22:02:00,
2013-05-10 15:12:00,65.0,34.0,-100.00,North,0,12.0,22.0,32,0.00,,,0.00,1002.000000,,2013-05-10 22:12:00,
2013-05-10 15:42:00,67.0,36.0,-100.00,North,0,10.0,21.0,32,0.00,,,0.00,820.000000,,2013-05-10 22:42:00,
2013-05-10 15:52:00,67.0,36.0,-100.00,North,0,10.0,21.0,32,0.00,,,0.00,820.000000,,2013-05-10 22:52:00,
2013-05-10 16:02:00,67.0,36.0,-100.00,North,0,10.0,21.0,32,0.00,,,0.00,820.000000,,2013-05-10 23:02:00,
2013-05-10 16:12:00,67.0,36.0,-100.00,North,0,10.0,21.0,32,0.00,,,0.00,820.000000,,2013-05-10 23:12:00,
2013-05-10 16:42:00,69.0,30.0,-100.00,North,0,10.0,20.0,23,0.00,,,0.00,849.000000,,2013-05-10 23:42:00,
2013-05-10 16:52:00,69.0,30.0,-100.00,North,0,10.0,20.0,23,0.00,,,0.00,849.000000,,2013-05-10 23:52:00,
2013-05-10 17:01:00,69.0,30.0,-100.00,North,0,10.0,20.0,23,0.00,,,0.00,849.000000,,2013-05-11 00:01:00,
2013-05-10 17:11:00,69.0,30.0,-100.00,North,0,10.0,20.0,23,0.00,,,0.00,849.000000,,2013-05-11 00:11:00,
2013-05-10 17:42:00,67.0,27.0,-100.00,North,0,8.0,20.0,22,0.00,,,0.00,696.000000,,2013-05-11 00:42:00,
2013-05-10 17:52:00,67.0,27.0,-100.00,North,0,8.0,20.0,22,0.00,,,0.00,696.000000,,2013-05-11 00:52:00,
2013-05-10 18:01:00,67.0,27.0,-100.00,North,0,8.0,20.0,22,0.00,,,0.00,696.000000,,2013-05-11 01:01:00,
2013-05-10 18:11:00,67.0,27.0,-100.00,North,0,8.0,20.0,22,0.00,,,0.00,696.000000,,2013-05-11 01:11:00,
2013-05-10 18:32:00,65.0,29.0,-100.00,North,0,7.0,16.0,26,0.00,,,0.00,363.000000,,2013-05-11 01:32:00,
2013-05-10 18:42:00,65.0,29.0,-100.00,North,0,7.0,16.0,26,0.00,,,0.00,363.000000,,2013-05-11 01:42:00,
2013-05-10 18:52:00,65.0,29.0,-100.00,North,0,7.0,16.0,26,0.00,,,0.00,363.000000,,2013-05-11 01:52:00,
2013-05-10 19:02:00,65.0,29.0,-100.00,North,0,7.0,16.0,26,0.00,,,0.00,363.000000,,2013-05-11 02:02:00,
2013-05-10 19:11:00,65.0,29.0,-100.00,North,0,7.0,16.0,26,0.00,,,0.00,363.000000,,2013-05-11 02:11:00,
2013-05-10 19:42:00,62.0,29.0,-100.00,North,1,8.0,16.0,29,0.00,,,0.00,46.000000,,2013-05-11 02:42:00,
2013-05-10 20:43:00,60.0,28.0,-100.00,North,1,10.0,14.0,30,0.00,,,0.00,8.000000,,2013-05-11 03:43:00,
2013-05-10 21:12:00,60.0,28.0,-100.00,North,1,10.0,14.0,30,0.00,,,0.00,8.000000,,2013-05-11 04:12:00,
2013-05-10 21:43:00,59.0,28.0,-100.00,North,1,8.0,15.0,30,0.00,,,0.00,2.000000,,2013-05-11 04:43:00,
2013-05-10 21:52:00,59.0,28.0,-100.00,North,1,8.0,15.0,30,0.00,,,0.00,2.000000,,2013-05-11 04:52:00,
2013-05-10 22:02:00,59.0,28.0,-100.00,North,1,8.0,15.0,30,0.00,,,0.00,2.000000,,2013-05-11 05:02:00,
2013-05-10 22:11:00,59.0,28.0,-100.00,North,1,8.0,15.0,30,0.00,,,0.00,2.000000,,2013-05-11 05:11:00,
2013-05-10 22:32:00,58.0,28.0,-100.00,North,1,5.0,13.0,32,0.00,,,0.00,2.000000,,2013-05-11 05:32:00,
2013-05-10 22:42:00,58.0,28.0,-100.00,North,1,5.0,13.0,32,0.00,,,0.00,2.000000,,2013-05-11 05:42:00,
2013-05-10 22:52:00,58.0,28.0,-100.00,North,1,5.0,13.0,32,0.00,,,0.00,2.000000,,2013-05-11 05:52:00,
2013-05-10 23:02:00,58.0,28.0,-100.00,North,1,5.0,13.0,32,0.00,,,0.00,2.000000,,2013-05-11 06:02:00,
2013-05-10 23:12:00,58.0,28.0,-100.00,North,1,5.0,13.0,32,0.00,,,0.00,2.000000,,2013-05-11 06:12:00,
2013-05-10 23:42:00,53.0,39.0,-100.00,North,1,5.0,10.0,58,0.00,,,0.00,2.000000,,2013-05-11 06:42:00,
2013-05-10 23:52:00,53.0,39.0,-100.00,North,1,5.0,10.0,58,0.00,,,0.00,2.000000,,2013-05-11 06:52:00,